^^
Grace C. Lehan Memorial Weather Station Historical Data
 
Daily Summary for May 09, 2021 Units:  English    Metric   Both
Daily Weekly Monthly Yearly
  Current: High: Low: Average:
Temperature: 44 °F 49.5 °F 43.8 °F 46.5 °F
Dew Point: 40.9 °F 43.9 °F 40.3 °F 42.3 °F
Humidity: 89.1% 89.1% 81% 85%
Wind Speed: 0mph 1.7mph 0mph 0.1mph
Wind Gust: 4mph 5mph - -
WindCalm - - West
Pressure: 29.95 in 29.95 in 29.90 in -
Precipitation: 0.00 in      
 
 
Tabular Data for May 09, 2021
Time Temperature Dew Point Pressure Wind Wind Speed Wind Gust Humidity Rainfall Rate (Hourly) solar
00:04 49.5 °F 43.9 °F 29.90 in West 0.7 mph 2 mph 81% 0.00 in 0 W/m2
00:09 49.4 °F 43.8 °F 29.91 in Calm   2 mph 81% 0.00 in 0 W/m2
00:14 49.4 °F 43.8 °F 29.91 in Calm   2 mph 81% 0.00 in 0 W/m2
00:19 49.3 °F 43.9 °F 29.91 in Calm   2 mph 81.6% 0.00 in 0 W/m2
00:24 49.1 °F 43.7 °F 29.91 in Calm   2 mph 81.5% 0.00 in 0 W/m2
00:29 49 °F 43.7 °F 29.91 in Calm   2 mph 82% 0.00 in 0 W/m2
00:34 48.8 °F 43.5 °F 29.91 in Calm     82% 0.00 in 0 W/m2
00:39 48.6 °F 43.3 °F 29.91 in Calm     82% 0.00 in 0 W/m2
00:44 48.4 °F 43.4 °F 29.92 in West 0.2 mph 3 mph 82.6% 0.00 in 0 W/m2
00:49 48.3 °F 43.4 °F 29.91 in Calm   3 mph 83.3% 0.00 in 0 W/m2
00:54 48.1 °F 43.6 °F 29.92 in Calm   3 mph 84.1% 0.00 in 0 W/m2
00:59 48.1 °F 43.1 °F 29.92 in Calm   3 mph 83% 0.00 in 0 W/m2
01:04 47.9 °F 43 °F 29.92 in Calm   3 mph 83% 0.00 in 0 W/m2
01:09 47.8 °F 43.1 °F 29.92 in Calm     83.7% 0.00 in 0 W/m2
01:14 47.7 °F 43.1 °F 29.92 in Calm     84% 0.00 in 0 W/m2
01:19 47.6 °F 43 °F 29.92 in Calm     84% 0.00 in 0 W/m2
01:24 47.4 °F 42.9 °F 29.92 in Calm     84% 0.00 in 0 W/m2
01:29 47.4 °F 42.8 °F 29.92 in Calm     84% 0.00 in 0 W/m2
01:34 47.2 °F 42.7 °F 29.92 in Calm     84% 0.00 in 0 W/m2
01:39 47.1 °F 42.7 °F 29.92 in Calm     84.5% 0.00 in 0 W/m2
01:44 46.9 °F 42.7 °F 29.92 in Calm     85% 0.00 in 0 W/m2
01:49 46.8 °F 42.5 °F 29.92 in Calm     85% 0.00 in 0 W/m2
01:54 46.7 °F 42.5 °F 29.92 in Calm     85.1% 0.00 in 0 W/m2
01:59 46.6 °F 42.6 °F 29.92 in Calm   1 mph 86% 0.00 in 0 W/m2
02:04 46.5 °F 42.5 °F 29.92 in Calm   1 mph 86% 0.00 in 0 W/m2
02:09 46.4 °F 42.5 °F 29.91 in Calm     86% 0.00 in 0 W/m2
02:14 46.3 °F 42.4 °F 29.92 in Calm     86% 0.00 in 0 W/m2
02:19 46.2 °F 42.3 °F 29.92 in Calm     86% 0.00 in 0 W/m2
02:24 46.2 °F 42.5 °F 29.91 in Calm     86.8% 0.00 in 0 W/m2
02:29 46.1 °F 42.5 °F 29.91 in West 0.4 mph 4 mph 87% 0.00 in 0 W/m2
02:34 46.2 °F 42.5 °F 29.91 in West 0.7 mph 5 mph 87% 0.00 in 0 W/m2
02:39 46.3 °F 42.6 °F 29.91 in Calm   5 mph 86.8% 0.00 in 0 W/m2
02:44 46.3 °F 42.3 °F 29.91 in Calm   5 mph 86% 0.00 in 0 W/m2
02:48 46.3 °F 42.3 °F 29.92 in Calm   5 mph 86% 0.00 in 0 W/m2
03:00 46.2 °F 42.3 °F 29.92 in Calm   5 mph 86% 0.00 in 0 W/m2
03:30 45.9 °F 42 °F 29.92 in Calm     86% 0.00 in 0 W/m2
04:04 45.7 °F 42.1 °F 29.93 in Calm     86.9% 0.00 in 0 W/m2
04:09 45.7 °F 41.8 °F 29.93 in Calm     86% 0.00 in 0 W/m2
04:14 45.7 °F 41.8 °F 29.93 in Calm     86.1% 0.00 in 0 W/m2
04:19 45.7 °F 42.1 °F 29.93 in Calm     87% 0.00 in 0 W/m2
04:24 45.7 °F 42.1 °F 29.94 in Calm     87% 0.00 in 0 W/m2
04:29 45.7 °F 42 °F 29.94 in Calm     86.6% 0.00 in 0 W/m2
04:34 45.6 °F 41.7 °F 29.94 in Calm     86% 0.00 in 0 W/m2
04:39 45.5 °F 41.5 °F 29.94 in Calm     86% 0.00 in 0 W/m2
04:44 45.4 °F 41.4 °F 29.94 in Calm     86% 0.00 in 0 W/m2
04:49 45.3 °F 41.4 °F 29.94 in Calm     86.3% 0.00 in 0 W/m2
04:53 45.2 °F 41.6 °F 29.95 in Calm     87% 0.00 in 0 W/m2
04:59 45.2 °F 41.6 °F 29.95 in Calm     87% 0.00 in 0 W/m2
05:04 45.2 °F 41.5 °F 29.95 in Calm     87% 0.00 in 0 W/m2
05:09 45 °F 41.1 °F 29.95 in West 0.5 mph 3 mph 86.2% 0.00 in 0 W/m2
05:14 44.7 °F 40.8 °F 29.95 in West 1.7 mph 4 mph 86% 0.00 in 0 W/m2
05:19 44.5 °F 40.8 °F 29.95 in West 1.2 mph 4 mph 87% 0.00 in 0 W/m2
05:24 44.4 °F 40.7 °F 29.95 in WSW 1.3 mph 4 mph 87% 0.00 in 0 W/m2
05:29 44.3 °F 40.6 °F 29.95 in WSW 0.4 mph 4 mph 87% 0.00 in 0 W/m2
05:34 44.1 °F 40.5 °F 29.95 in WSW 0.3 mph 4 mph 87% 0.00 in 0 W/m2
05:39 43.8 °F 40.3 °F 29.95 in Calm   4 mph 87.4% 0.00 in 0 W/m2
05:44 43.8 °F 40.4 °F 29.95 in West 0.6 mph 4 mph 87.8% 0.00 in 5 W/m2
05:48 44 °F 40.9 °F 29.95 in Calm   4 mph 89.1% 0.00 in 7 W/m2
Hartford County Weather
Compliments of Weather Underground - 4 mb